Time;durP1;ratioP1;P1;durP2;ratioP2;P2;SDS_P1;SDS_P2;PMS_P1;PMS_P2;Temp;Humidity;BMP_temperature;BMP_pressure;BME280_temperature;BME280_humidity;BME280_pressure;Samples;Min_cycle;Max_cycle;Signal;HPM_P1;HPM_P2
2023/07/19 00:02:10;;;;;;;0.47;0.30;;;16.10;65.70;;;;;;4865374;29;20524;-93
2023/07/19 00:04:36;;;;;;;0.10;0.10;;;16.10;65.10;;;;;;4864527;29;20045;-93
2023/07/19 00:07:02;;;;;;;0.22;0.20;;;16.10;64.40;;;;;;4880652;29;20060;-93
2023/07/19 00:09:28;;;;;;;0.20;0.20;;;16.10;63.80;;;;;;4848650;29;20234;-93
2023/07/19 00:11:54;;;;;;;0.30;0.30;;;16.10;67.00;;;;;;4862224;29;20139;-92
2023/07/19 00:14:19;;;;;;;0.20;0.20;;;16.10;70.90;;;;;;4846144;29;20045;-93
2023/07/19 00:16:45;;;;;;;0.60;0.50;;;16.10;66.00;;;;;;4862101;29;20144;-94
2023/07/19 00:19:11;;;;;;;0.35;0.35;;;16.10;63.70;;;;;;4861797;29;20293;-93
2023/07/19 00:21:37;;;;;;;0.20;0.20;;;16.10;64.70;;;;;;4859829;29;20121;-93
2023/07/19 00:24:02;;;;;;;0.40;0.40;;;16.10;65.40;;;;;;4854767;29;20075;-93
2023/07/19 00:26:28;;;;;;;0.30;0.30;;;16.20;64.20;;;;;;4852387;29;20354;-89
2023/07/19 00:28:54;;;;;;;0.70;0.57;;;16.10;64.00;;;;;;4863283;29;20072;-93
2023/07/19 00:31:19;;;;;;;0.23;0.20;;;16.10;66.10;;;;;;4847135;29;20060;-93
2023/07/19 00:33:45;;;;;;;0.13;0.13;;;16.10;67.40;;;;;;4861469;29;20080;-90
2023/07/19 00:36:11;;;;;;;0.23;0.23;;;16.10;66.70;;;;;;4862696;29;20041;-93
2023/07/19 00:38:37;;;;;;;0.30;0.30;;;16.10;70.10;;;;;;4861309;29;20059;-94
2023/07/19 00:41:03;;;;;;;0.22;0.22;;;16.10;70.90;;;;;;4861410;29;20116;-91
2023/07/19 00:43:29;;;;;;;0.27;0.27;;;16.10;67.10;;;;;;4846980;29;20044;-90
2023/07/19 00:45:55;;;;;;;0.20;0.20;;;16.10;67.10;;;;;;4845830;29;20078;-93
2023/07/19 00:48:22;;;;;;;0.32;0.32;;;16.10;66.70;;;;;;4879895;29;20077;-93
2023/07/19 00:50:48;;;;;;;;;;;16.10;66.70;;;;;;4861025;29;20049;-93
2023/07/19 00:53:14;;;;;;;0.22;0.22;;;16.00;80.80;;;;;;4854530;29;19931;-93
2023/07/19 00:55:40;;;;;;;0.47;0.40;;;16.10;70.90;;;;;;4861305;29;20085;-92
2023/07/19 00:58:07;;;;;;;0.40;0.40;;;16.00;70.80;;;;;;4845293;29;20057;-94
2023/07/19 01:00:32;;;;;;;;;;;16.10;74.20;;;;;;4843364;29;20052;-90
2023/07/19 01:02:59;;;;;;;0.35;0.10;;;16.00;83.70;;;;;;4854121;29;19927;-93
2023/07/19 01:05:26;;;;;;;0.40;0.40;;;16.00;71.30;;;;;;4855651;29;20069;-93
2023/07/19 01:07:53;;;;;;;0.20;0.20;;;16.00;75.30;;;;;;4852312;29;20056;-92
2023/07/19 01:10:20;;;;;;;0.52;0.50;;;16.00;74.90;;;;;;4851528;29;20060;-92
2023/07/19 01:13:21;;;;;;;;;;;15.90;72.30;;;;;;4851678;29;20057;-93
2023/07/19 01:15:47;;;;;;;0.47;0.32;;;15.90;87.90;;;;;;4788051;29;19925;-93
2023/07/19 01:18:13;;;;;;;0.30;0.30;;;15.90;76.00;;;;;;4822163;29;20056;-93
2023/07/19 01:20:38;;;;;;;0.52;0.28;;;15.90;74.80;;;;;;4849112;29;20056;-92
2023/07/19 01:23:05;;;;;;;0.30;0.30;;;15.80;74.00;;;;;;4852789;29;20085;-93
2023/07/19 01:25:31;;;;;;;0.22;0.22;;;15.70;73.20;;;;;;4833926;29;20305;-93
2023/07/19 01:27:57;;;;;;;0.30;0.22;;;15.70;80.20;;;;;;4854505;29;20056;-93
2023/07/19 01:30:22;;;;;;;0.30;0.30;;;15.70;81.10;;;;;;4834780;29;20041;-93
2023/07/19 01:32:48;;;;;;;0.35;0.35;;;15.70;79.70;;;;;;4834165;29;20050;-92
2023/07/19 01:35:14;;;;;;;0.40;0.40;;;15.70;80.50;;;;;;4861905;29;20041;-93
2023/07/19 01:37:40;;;;;;;0.60;0.35;;;15.70;85.60;;;;;;4845101;29;20049;-92
2023/07/19 01:40:06;;;;;;;0.30;0.30;;;15.70;82.20;;;;;;4873740;29;20045;-93
2023/07/19 01:42:32;;;;;;;;;;;15.70;79.40;;;;;;4863786;29;20771;-93
2023/07/19 01:44:59;;;;;;;0.32;0.32;;;15.70;91.60;;;;;;4847691;29;19924;-92
2023/07/19 01:47:26;;;;;;;0.38;0.30;;;15.70;82.40;;;;;;4848312;29;20116;-93
2023/07/19 01:49:51;;;;;;;0.55;0.45;;;15.60;84.60;;;;;;4847693;29;20056;-92
2023/07/19 01:52:17;;;;;;;0.30;0.30;;;15.60;89.40;;;;;;4862206;29;20041;-93
2023/07/19 01:54:43;;;;;;;0.40;0.40;;;15.60;87.30;;;;;;4874592;29;20401;-93
2023/07/19 01:57:09;;;;;;;0.30;0.30;;;15.70;89.50;;;;;;4877982;29;20071;-92
2023/07/19 01:59:35;;;;;;;0.70;0.50;;;15.70;89.20;;;;;;4860157;29;20057;-93
2023/07/19 02:02:01;;;;;;;0.47;0.40;;;15.70;87.20;;;;;;4845738;29;20072;-93
2023/07/19 02:04:27;;;;;;;0.40;0.40;;;15.70;86.20;;;;;;4860999;29;20064;-94
2023/07/19 02:06:53;;;;;;;0.40;0.40;;;15.80;87.70;;;;;;4860972;29;20055;-94
2023/07/19 02:09:19;;;;;;;0.30;0.30;;;15.80;86.00;;;;;;4858494;29;20067;-92
2023/07/19 02:11:45;;;;;;;0.30;0.30;;;15.80;87.80;;;;;;4851963;29;20041;-93
2023/07/19 02:14:11;;;;;;;0.77;0.37;;;15.80;90.50;;;;;;4843099;29;20041;-94
2023/07/19 02:16:36;;;;;;;0.57;0.43;;;15.80;89.00;;;;;;4857177;29;20060;-94
2023/07/19 02:19:05;;;;;;;0.50;0.40;;;15.80;88.10;;;;;;4860640;29;20064;-93
2023/07/19 02:21:30;;;;;;;1.08;0.50;;;15.80;90.00;;;;;;4845027;29;20379;-92
2023/07/19 02:23:57;;;;;;;0.50;0.50;;;15.80;89.50;;;;;;4860136;29;20060;-94
2023/07/19 02:26:23;;;;;;;0.30;0.30;;;15.80;90.40;;;;;;4876397;29;20056;-92
2023/07/19 02:28:49;;;;;;;0.85;0.45;;;15.80;89.70;;;;;;4860556;29;20053;-93
2023/07/19 02:31:15;;;;;;;0.60;0.52;;;15.80;89.50;;;;;;4860679;29;20101;-92
2023/07/19 02:33:40;;;;;;;0.47;0.40;;;15.70;89.30;;;;;;4874555;29;20053;-93
2023/07/19 02:36:06;;;;;;;0.30;0.30;;;15.70;90.50;;;;;;4852190;29;20290;-93
2023/07/19 02:38:34;;;;;;;0.20;0.20;;;15.70;91.90;;;;;;4853649;29;20716;-94
2023/07/19 02:41:00;;;;;;;0.30;0.30;;;15.70;91.60;;;;;;4836630;29;20305;-92
2023/07/19 02:43:26;;;;;;;;;;;15.70;91.50;;;;;;4848282;29;20113;-93
2023/07/19 02:45:53;;;;;;;0.50;0.50;;;15.70;94.90;;;;;;4863452;29;20368;-92
2023/07/19 02:48:19;;;;;;;0.50;0.43;;;15.70;92.20;;;;;;4848164;29;20052;-92
2023/07/19 02:50:46;;;;;;;0.30;0.30;;;15.70;91.10;;;;;;4840453;29;20060;-90
2023/07/19 02:53:12;;;;;;;0.40;0.38;;;15.70;91.60;;;;;;4854031;29;20078;-92
2023/07/19 02:55:38;;;;;;;0.40;0.40;;;15.70;91.20;;;;;;4852182;29;20062;-91
2023/07/19 02:58:04;;;;;;;1.63;0.38;;;15.60;90.40;;;;;;4867877;29;20513;-92
2023/07/19 03:00:29;;;;;;;0.50;0.50;;;15.60;90.60;;;;;;4853028;29;20041;-92
2023/07/19 03:02:55;;;;;;;0.40;0.40;;;15.60;91.20;;;;;;4852645;29;20306;-93
2023/07/19 03:05:21;;;;;;;0.45;0.45;;;15.60;91.20;;;;;;4839313;29;20085;-93
2023/07/19 03:07:47;;;;;;;0.50;0.50;;;15.60;90.90;;;;;;4862696;29;20482;-90
2023/07/19 03:10:13;;;;;;;0.60;0.60;;;15.60;87.20;;;;;;4882104;29;20058;-93
2023/07/19 03:12:38;;;;;;;0.40;0.40;;;15.60;89.40;;;;;;4862137;29;20581;-92
2023/07/19 03:15:05;;;;;;;2.53;0.50;;;15.50;91.80;;;;;;4850115;29;20305;-92
2023/07/19 03:17:30;;;;;;;0.88;0.82;;;15.60;92.10;;;;;;4851594;29;20193;-93
2023/07/19 03:19:56;;;;;;;0.40;0.40;;;15.50;92.70;;;;;;4840166;29;20132;-93
2023/07/19 03:22:22;;;;;;;0.87;0.70;;;15.50;93.00;;;;;;4854673;29;20298;-92
2023/07/19 03:24:50;;;;;;;0.60;0.60;;;15.50;93.30;;;;;;4853045;29;20045;-92
2023/07/19 03:27:16;;;;;;;0.52;0.47;;;15.50;93.20;;;;;;4862905;29;20104;-93
2023/07/19 03:29:41;;;;;;;0.50;0.50;;;15.50;93.00;;;;;;4862805;29;20508;-92
2023/07/19 03:32:07;;;;;;;0.43;0.43;;;15.50;93.40;;;;;;4861998;29;20049;-93
2023/07/19 03:34:34;;;;;;;0.50;0.50;;;15.50;93.90;;;;;;4854565;29;20297;-92
2023/07/19 03:36:59;;;;;;;0.38;0.38;;;15.50;92.60;;;;;;4856647;29;20056;-92
2023/07/19 03:39:25;;;;;;;0.30;0.30;;;15.50;92.30;;;;;;4852199;29;20044;-92
2023/07/19 03:41:51;;;;;;;0.40;0.40;;;15.50;92.40;;;;;;4860577;29;20117;-89
2023/07/19 03:44:17;;;;;;;0.70;0.68;;;15.50;92.30;;;;;;4846803;29;20054;-93
2023/07/19 03:46:43;;;;;;;0.55;0.55;;;15.50;92.70;;;;;;4857612;29;20087;-93
2023/07/19 03:49:08;;;;;;;0.57;0.57;;;15.40;92.60;;;;;;4864843;29;20052;-92
2023/07/19 03:51:34;;;;;;;0.40;0.40;;;15.40;93.50;;;;;;4849962;29;20052;-92
2023/07/19 03:54:00;;;;;;;0.83;0.83;;;15.40;93.20;;;;;;4863504;29;20309;-93
2023/07/19 03:56:25;;;;;;;0.50;0.50;;;15.40;93.50;;;;;;4865186;29;20547;-93
2023/07/19 03:58:51;;;;;;;0.40;0.40;;;15.40;93.60;;;;;;4865214;29;20490;-93
2023/07/19 04:01:17;;;;;;;0.70;0.70;;;15.40;95.10;;;;;;4864622;29;20101;-93
2023/07/19 04:03:43;;;;;;;0.40;0.40;;;15.40;95.40;;;;;;4848706;29;20108;-92
2023/07/19 04:06:09;;;;;;;0.52;0.40;;;15.40;95.00;;;;;;4849532;29;20385;-93
2023/07/19 04:08:34;;;;;;;0.63;0.63;;;15.40;95.60;;;;;;4865114;29;20057;-92
2023/07/19 04:11:00;;;;;;;0.50;0.50;;;15.40;95.20;;;;;;4847745;29;20080;-92
2023/07/19 04:13:26;;;;;;;0.40;0.40;;;15.40;95.90;;;;;;4832103;29;20038;-92
2023/07/19 04:15:52;;;;;;;1.27;0.77;;;15.40;96.40;;;;;;4870601;29;20307;-93
2023/07/19 04:18:20;;;;;;;1.00;0.68;;;15.40;95.40;;;;;;4851348;29;20102;-93
2023/07/19 04:20:52;;;;;;;0.93;0.57;;;15.40;96.80;;;;;;4854706;29;20105;-93
2023/07/19 04:23:17;;;;;;;0.73;0.55;;;15.40;96.90;;;;;;4868644;29;20042;-93
2023/07/19 04:25:43;;;;;;;0.50;0.50;;;15.40;95.60;;;;;;4852845;29;20174;-93
2023/07/19 04:28:09;;;;;;;0.60;0.60;;;15.40;96.50;;;;;;4853395;29;20101;-93
2023/07/19 04:30:34;;;;;;;0.70;0.70;;;15.40;96.20;;;;;;4850913;29;20042;-93
2023/07/19 04:33:00;;;;;;;0.63;0.50;;;15.40;97.00;;;;;;4851972;29;20956;-91
2023/07/19 04:35:27;;;;;;;0.77;0.50;;;15.40;96.70;;;;;;4855221;29;20294;-93
2023/07/19 04:37:53;;;;;;;0.70;0.70;;;15.40;96.20;;;;;;4849865;29;20093;-93
2023/07/19 04:40:18;;;;;;;0.57;0.57;;;15.50;96.10;;;;;;4850345;29;20045;-93
2023/07/19 04:42:44;;;;;;;0.83;0.70;;;15.50;96.40;;;;;;4854182;29;20052;-93
2023/07/19 04:45:10;;;;;;;0.70;0.70;;;15.50;97.00;;;;;;4852065;29;20045;-93
2023/07/19 04:47:37;;;;;;;0.65;0.65;;;15.50;98.10;;;;;;4857272;29;20127;-91
2023/07/19 04:50:06;;;;;;;0.80;0.80;;;15.50;98.10;;;;;;4854255;29;20049;-92
2023/07/19 04:52:32;;;;;;;0.70;0.70;;;15.60;97.80;;;;;;4852933;29;20057;-93
2023/07/19 04:54:59;;;;;;;0.60;0.60;;;15.60;97.70;;;;;;4851426;29;20050;-92
2023/07/19 04:57:24;;;;;;;1.15;1.05;;;15.60;97.70;;;;;;4854946;29;20060;-93
2023/07/19 04:59:50;;;;;;;1.40;1.00;;;15.60;98.40;;;;;;4851798;29;20058;-92
2023/07/19 05:02:16;;;;;;;1.75;1.15;;;15.60;98.40;;;;;;4854256;29;20482;-94
2023/07/19 05:04:41;;;;;;;0.53;0.53;;;15.70;98.10;;;;;;4867997;29;20045;-94
2023/07/19 05:07:07;;;;;;;0.70;0.70;;;15.70;98.30;;;;;;4852028;29;20290;-92
2023/07/19 05:09:33;;;;;;;0.70;0.67;;;15.70;99.10;;;;;;4838693;29;20041;-94
2023/07/19 05:11:59;;;;;;;1.10;0.63;;;15.70;99.30;;;;;;4849382;29;20140;-94
2023/07/19 05:14:26;;;;;;;0.52;0.52;;;15.70;99.20;;;;;;4857684;29;20402;-96
2023/07/19 05:16:51;;;;;;;0.47;0.47;;;15.70;99.20;;;;;;4840587;29;20056;-94
2023/07/19 05:19:17;;;;;;;1.30;1.00;;;15.80;98.60;;;;;;4850121;29;20057;-94
2023/07/19 05:21:43;;;;;;;0.90;0.90;;;15.70;99.50;;;;;;4853972;29;20189;-95
2023/07/19 05:24:09;;;;;;;0.82;0.82;;;15.80;98.90;;;;;;4842846;29;20139;-92
2023/07/19 05:26:35;;;;;;;2.25;0.63;;;15.80;99.00;;;;;;4850513;29;20119;-94
2023/07/19 05:29:00;;;;;;;0.60;0.60;;;15.80;98.90;;;;;;4837579;29;20049;-94
2023/07/19 05:31:27;;;;;;;0.55;0.55;;;15.80;98.80;;;;;;4856578;29;21754;-92
2023/07/19 05:33:52;;;;;;;0.70;0.60;;;15.80;98.20;;;;;;4860871;29;20073;-94
2023/07/19 05:36:18;;;;;;;0.60;0.60;;;15.80;98.60;;;;;;4861530;29;20120;-93
2023/07/19 05:38:44;;;;;;;0.83;0.57;;;15.80;98.50;;;;;;4846426;29;20053;-92
2023/07/19 05:41:10;;;;;;;0.88;0.88;;;15.90;98.40;;;;;;4846713;29;20302;-93
2023/07/19 05:43:35;;;;;;;0.70;0.65;;;15.80;98.50;;;;;;4860322;29;20076;-94
2023/07/19 05:46:08;;;;;;;0.87;0.80;;;15.90;97.80;;;;;;4878779;29;20060;-93
2023/07/19 05:48:35;;;;;;;1.20;0.77;;;15.90;98.50;;;;;;4863544;29;20294;-94
2023/07/19 05:51:05;;;;;;;1.08;0.70;;;15.90;97.90;;;;;;4863361;29;20052;-92
2023/07/19 05:53:31;;;;;;;0.52;0.52;;;15.90;98.60;;;;;;4847317;29;20045;-94
2023/07/19 05:55:57;;;;;;;0.70;0.40;;;16.00;97.50;;;;;;4863712;29;20158;-94
2023/07/19 05:58:23;;;;;;;0.63;0.60;;;15.90;97.40;;;;;;4862680;29;20052;-94
2023/07/19 06:00:49;;;;;;;0.60;0.60;;;16.00;97.10;;;;;;4861990;29;20044;-94
2023/07/19 06:03:16;;;;;;;0.80;0.60;;;16.00;97.70;;;;;;4878464;29;20135;-94
2023/07/19 06:05:45;;;;;;;0.50;0.50;;;16.00;97.30;;;;;;4863056;29;20059;-94
2023/07/19 06:08:11;;;;;;;0.75;0.70;;;16.00;97.00;;;;;;4862703;29;20140;-90
2023/07/19 06:10:38;;;;;;;0.80;0.80;;;16.10;96.50;;;;;;4862200;29;20581;-93
2023/07/19 06:13:03;;;;;;;;;;;16.10;96.30;;;;;;4861134;29;20037;-93
2023/07/19 06:15:38;;;;;;;1.75;0.70;;;16.10;99.20;;;;;;4876635;29;20535;-93
2023/07/19 06:18:04;;;;;;;0.55;0.55;;;16.20;97.30;;;;;;4863375;29;20517;-93
2023/07/19 06:20:29;;;;;;;0.27;0.27;;;16.20;95.90;;;;;;4848882;29;20041;-93
2023/07/19 06:22:55;;;;;;;0.50;0.50;;;16.20;95.60;;;;;;4864903;29;20316;-94
2023/07/19 06:25:21;;;;;;;0.52;0.35;;;16.20;95.00;;;;;;4848737;29;20052;-93
2023/07/19 06:27:47;;;;;;;0.50;0.50;;;16.20;94.00;;;;;;4839350;29;20049;-93
2023/07/19 06:30:13;;;;;;;0.20;0.20;;;16.20;93.30;;;;;;4846488;29;20041;-88
2023/07/19 06:32:38;;;;;;;0.50;0.50;;;16.20;92.10;;;;;;4878446;29;20128;-92
2023/07/19 06:35:05;;;;;;;0.30;0.30;;;16.20;91.10;;;;;;4855728;29;20093;-91
2023/07/19 06:37:33;;;;;;;;;;;16.20;90.90;;;;;;4840169;29;20793;-91
2023/07/19 06:40:02;;;;;;;0.45;0.45;;;16.30;92.80;;;;;;4863098;29;20071;-92
2023/07/19 06:42:28;;;;;;;0.30;0.30;;;16.30;90.90;;;;;;4878717;29;20084;-92
2023/07/19 06:44:54;;;;;;;0.50;0.30;;;16.30;90.60;;;;;;4863160;29;20109;-93
2023/07/19 06:47:19;;;;;;;0.93;0.93;;;16.30;86.80;;;;;;4865785;29;20846;-92
2023/07/19 06:49:45;;;;;;;0.37;0.30;;;16.30;83.90;;;;;;4857126;29;20085;-92
2023/07/19 06:52:11;;;;;;;0.82;0.52;;;16.30;83.10;;;;;;4866190;29;20498;-92
2023/07/19 06:54:36;;;;;;;0.65;0.38;;;16.40;83.00;;;;;;4880797;29;20104;-86
2023/07/19 06:57:02;;;;;;;0.40;0.40;;;16.40;83.10;;;;;;4834554;29;20060;-89
2023/07/19 06:59:28;;;;;;;0.28;0.28;;;16.40;80.20;;;;;;4860606;29;20309;-92
2023/07/19 07:01:54;;;;;;;0.20;0.20;;;16.40;76.50;;;;;;4847664;29;20084;-92
2023/07/19 07:04:20;;;;;;;0.40;0.40;;;16.40;73.70;;;;;;4847545;29;20056;-91
2023/07/19 07:06:45;;;;;;;0.57;0.30;;;16.40;68.50;;;;;;4847590;29;20065;-91
2023/07/19 07:09:14;;;;;;;0.40;0.30;;;16.40;64.90;;;;;;4847364;29;20050;-86
2023/07/19 07:11:39;;;;;;;0.25;0.25;;;16.40;64.30;;;;;;4861667;29;20152;-88
2023/07/19 07:14:05;;;;;;;0.65;0.65;;;16.40;65.70;;;;;;4869316;29;20463;-88
2023/07/19 07:16:31;;;;;;;0.40;0.40;;;16.30;64.80;;;;;;4846427;29;20052;-88
2023/07/19 07:18:57;;;;;;;0.40;0.32;;;16.40;62.00;;;;;;4863055;29;20399;-87
2023/07/19 07:21:23;;;;;;;0.22;0.20;;;16.30;59.10;;;;;;4862613;29;20196;-88
2023/07/19 07:23:49;;;;;;;0.45;0.35;;;16.30;57.80;;;;;;4847624;29;20053;-88
2023/07/19 07:26:14;;;;;;;0.52;0.47;;;16.40;59.70;;;;;;4861889;29;20049;-88
2023/07/19 07:28:40;;;;;;;0.22;0.20;;;16.40;61.10;;;;;;4876224;29;20048;-88
2023/07/19 07:31:08;;;;;;;0.20;0.20;;;16.50;57.10;;;;;;4877706;29;20056;-85
2023/07/19 07:33:35;;;;;;;0.40;0.40;;;16.50;59.10;;;;;;4862731;29;20498;-86
2023/07/19 07:36:02;;;;;;;0.28;0.28;;;16.60;56.60;;;;;;4864590;29;20517;-87
2023/07/19 07:38:27;;;;;;;0.30;0.30;;;16.60;50.60;;;;;;4864614;29;20052;-86
2023/07/19 07:41:06;;;;;;;0.63;0.50;;;16.60;48.90;;;;;;4869808;29;20113;-89
2023/07/19 07:43:32;;;;;;;0.30;0.30;;;16.60;50.10;;;;;;4879914;29;20679;-88
2023/07/19 07:45:58;;;;;;;0.35;0.35;;;16.60;50.80;;;;;;4864412;29;20112;-88
2023/07/19 07:48:25;;;;;;;0.22;0.22;;;16.70;51.70;;;;;;4864374;29;20060;-88
2023/07/19 07:50:51;;;;;;;0.50;0.40;;;16.70;54.50;;;;;;4864622;29;20057;-89
2023/07/19 07:53:21;;;;;;;0.45;0.45;;;16.80;55.10;;;;;;4848796;29;20040;-88
2023/07/19 07:55:48;;;;;;;1.25;0.30;;;16.80;54.00;;;;;;4863412;29;20072;-89
2023/07/19 07:58:14;;;;;;;0.38;0.38;;;16.80;54.80;;;;;;4864462;29;20057;-88
2023/07/19 08:00:44;;;;;;;0.68;0.45;;;16.90;53.30;;;;;;4862232;29;20048;-88
2023/07/19 08:03:10;;;;;;;0.13;0.13;;;16.90;52.70;;;;;;4879974;29;20049;-88
2023/07/19 08:05:37;;;;;;;0.10;0.10;;;16.90;48.00;;;;;;4848642;29;20514;-89
2023/07/19 08:08:05;;;;;;;0.10;0.10;;;16.90;46.80;;;;;;4860308;29;20049;-89
2023/07/19 08:10:40;;;;;;;0.38;0.30;;;16.90;44.80;;;;;;4845445;29;20431;-89
2023/07/19 08:13:10;;;;;;;1.00;0.50;;;16.90;43.90;;;;;;4854370;29;20044;-90
2023/07/19 08:15:36;;;;;;;0.20;0.20;;;17.00;44.20;;;;;;4864049;29;20144;-91
2023/07/19 08:18:01;;;;;;;0.22;0.22;;;17.00;44.90;;;;;;4864068;29;20091;-93
2023/07/19 08:20:27;;;;;;;1.15;0.68;;;17.00;46.00;;;;;;4876057;29;20061;-91
2023/07/19 08:22:53;;;;;;;0.28;0.28;;;17.00;43.90;;;;;;4861312;29;20056;-91
2023/07/19 08:25:19;;;;;;;0.10;0.10;;;17.00;37.90;;;;;;4876893;29;20053;-92
2023/07/19 08:27:45;;;;;;;0.60;0.60;;;17.10;36.20;;;;;;4845820;29;20057;-92
2023/07/19 08:30:18;;;;;;;0.30;0.30;;;17.10;31.20;;;;;;4853589;29;20462;-92
2023/07/19 08:32:47;;;;;;;0.50;0.20;;;17.10;28.70;;;;;;4863411;29;20506;-91
2023/07/19 08:35:18;;;;;;;0.50;0.15;;;17.20;30.90;;;;;;4864016;29;20142;-92
2023/07/19 08:37:45;;;;;;;0.22;0.22;;;17.20;30.00;;;;;;4848846;29;20132;-91
2023/07/19 08:40:12;;;;;;;0.40;0.40;;;17.20;27.80;;;;;;4848548;29;20057;-92
2023/07/19 08:42:42;;;;;;;0.40;0.40;;;17.30;27.30;;;;;;4864094;29;20057;-92
2023/07/19 08:45:09;;;;;;;0.20;0.20;;;17.30;24.60;;;;;;4864297;29;20120;-91
2023/07/19 08:47:39;;;;;;;0.10;0.10;;;17.50;15.80;;;;;;4863863;29;20106;-92
2023/07/19 08:50:05;;;;;;;0.10;0.10;;;17.40;9.90;;;;;;4849110;29;20391;-91
2023/07/19 08:52:35;;;;;;;0.22;0.22;;;17.50;5.60;;;;;;4847777;29;20080;-91
2023/07/19 08:55:02;;;;;;;0.52;0.20;;;17.50;9.70;;;;;;4848719;29;20040;-91
2023/07/19 08:57:32;;;;;;;0.35;0.35;;;17.50;4.50;;;;;;4863092;29;20117;-91
2023/07/19 08:59:58;;;;;;;0.30;0.30;;;17.50;1.00;;;;;;4847526;29;20532;-91
2023/07/19 09:02:25;;;;;;;0.30;0.30;;;17.50;3.80;;;;;;4848274;29;20080;-92
2023/07/19 09:05:09;;;;;;;0.15;0.15;;;17.60;4.70;;;;;;4863368;29;20358;-91
2023/07/19 09:07:36;;;;;;;0.13;0.13;;;17.50;1.00;;;;;;4847789;29;20402;-91
2023/07/19 09:10:03;;;;;;;0.73;0.30;;;17.50;1.00;;;;;;4863472;29;20100;-91
2023/07/19 09:12:39;;;;;;;0.20;0.20;;;17.50;1.00;;;;;;4863234;29;20125;-91
2023/07/19 09:15:07;;;;;;;0.60;0.60;;;17.50;1.00;;;;;;4879043;29;20478;-91
2023/07/19 09:17:41;;;;;;;0.13;0.13;;;17.50;1.00;;;;;;4878408;29;20095;-90
2023/07/19 09:20:08;;;;;;;0.30;0.30;;;17.40;1.00;;;;;;4848421;29;20049;-91
2023/07/19 09:22:49;;;;;;;0.35;0.30;;;17.50;1.00;;;;;;4878377;29;20049;-90
2023/07/19 09:25:17;;;;;;;0.45;0.45;;;17.60;1.00;;;;;;4847834;29;20127;-91
2023/07/19 09:27:48;;;;;;;0.15;0.15;;;17.70;1.00;;;;;;4847870;29;20101;-92
2023/07/19 09:30:17;;;;;;;1.95;0.95;;;17.80;1.00;;;;;;4862619;29;20041;-91
2023/07/19 09:32:43;;;;;;;0.10;0.10;;;17.90;1.00;;;;;;4861815;29;20053;-91
2023/07/19 09:35:12;;;;;;;0.10;0.10;;;17.90;1.00;;;;;;4863150;29;20109;-91
2023/07/19 09:37:41;;;;;;;0.28;0.28;;;17.80;1.00;;;;;;4846888;29;20067;-91
2023/07/19 09:40:14;;;;;;;0.20;0.20;;;17.80;1.00;;;;;;4863200;29;20135;-91
2023/07/19 09:42:43;;;;;;;0.30;0.30;;;17.80;1.00;;;;;;4878101;29;20053;-91
2023/07/19 09:45:13;;;;;;;0.10;0.10;;;17.80;1.00;;;;;;4847621;29;20573;-91
2023/07/19 09:47:43;;;;;;;0.10;0.10;;;17.80;1.00;;;;;;4862653;29;20049;-91
2023/07/19 09:50:09;;;;;;;0.30;0.30;;;17.90;1.00;;;;;;4863042;29;20112;-91
2023/07/19 09:52:38;;;;;;;0.47;0.47;;;18.00;1.00;;;;;;4846713;29;20053;-93
2023/07/19 09:55:08;;;;;;;0.40;0.40;;;18.20;1.00;;;;;;4863030;29;20057;-92
2023/07/19 09:57:38;;;;;;;0.28;0.28;;;18.40;1.00;;;;;;4862285;29;20061;-91
2023/07/19 10:00:17;;;;;;;0.20;0.20;;;18.70;1.00;;;;;;4846290;29;20045;-91
2023/07/19 10:02:43;;;;;;;0.43;0.43;;;18.70;1.00;;;;;;4861961;29;20105;-91
2023/07/19 10:05:14;;;;;;;0.20;0.20;;;18.80;1.00;;;;;;4847470;29;20410;-91
2023/07/19 10:07:42;;;;;;;0.20;0.20;;;18.80;1.00;;;;;;4847132;29;20053;-90
2023/07/19 10:10:14;;;;;;;0.25;0.25;;;18.50;1.00;;;;;;4862485;29;20105;-91
2023/07/19 10:12:46;;;;;;;0.20;0.20;;;19.00;1.00;;;;;;4847054;29;20093;-90
2023/07/19 10:15:16;;;;;;;0.30;0.20;;;19.20;1.00;;;;;;4847472;29;20049;-91
2023/07/19 10:17:55;;;;;;;0.25;0.25;;;19.40;1.00;;;;;;4877874;29;20494;-90
2023/07/19 10:20:33;;;;;;;0.20;0.20;;;19.60;1.00;;;;;;4862847;29;20482;-90
2023/07/19 10:23:00;;;;;;;0.20;0.20;;;19.70;99.90;;;;;;4877856;29;20104;-90
2023/07/19 10:25:27;;;;;;;0.30;0.30;;;19.60;99.90;;;;;;4847230;29;20057;-91
2023/07/19 10:27:59;;;;;;;0.20;0.20;;;19.50;1.00;;;;;;4877674;29;20057;-91
2023/07/19 10:30:48;;;;;;;0.10;0.10;;;19.40;99.90;;;;;;4876175;29;20049;-91
2023/07/19 10:33:21;;;;;;;0.17;0.17;;;19.40;99.90;;;;;;4877292;29;20045;-90
2023/07/19 10:35:51;;;;;;;0.10;0.10;;;19.30;1.00;;;;;;4862402;29;20045;-91
2023/07/19 10:38:32;;;;;;;0.20;0.20;;;19.20;1.00;;;;;;4847188;29;20057;-91
2023/07/19 10:41:02;;;;;;;0.38;0.30;;;19.10;1.00;;;;;;4877895;29;20060;-92
2023/07/19 10:43:30;;;;;;;0.08;0.08;;;19.00;1.00;;;;;;4847197;29;20045;-91
2023/07/19 10:46:09;;;;;;;0.32;0.22;;;18.80;1.00;;;;;;4862165;29;20444;-91
2023/07/19 10:48:36;;;;;;;0.75;0.10;;;18.70;1.00;;;;;;4862470;29;20557;-91
2023/07/19 10:51:11;;;;;;;0.10;0.10;;;18.70;1.00;;;;;;4862072;29;20057;-91
2023/07/19 10:53:45;;;;;;;0.22;0.20;;;18.50;1.00;;;;;;4862236;29;20132;-91
2023/07/19 10:56:14;;;;;;;0.50;0.30;;;18.40;1.00;;;;;;4846899;29;20073;-91
2023/07/19 10:58:40;;;;;;;0.10;0.10;;;18.40;1.00;;;;;;4862324;29;20055;-91
2023/07/19 11:01:06;;;;;;;0.10;0.10;;;18.40;1.00;;;;;;4843236;29;20409;-91
2023/07/19 11:03:32;;;;;;;;;;;18.30;1.00;;;;;;4830635;29;20045;-91
2023/07/19 11:06:06;;;;;;;0.35;0.20;;;18.20;1.00;;;;;;4816599;29;20026;-91
2023/07/19 11:08:32;;;;;;;0.15;0.15;;;18.20;1.00;;;;;;4831949;29;20056;-91
2023/07/19 11:10:58;;;;;;;0.20;0.20;;;18.20;1.00;;;;;;4862037;29;20061;-90
2023/07/19 11:13:25;;;;;;;;;;;18.10;1.00;;;;;;4847438;29;20502;-90
2023/07/19 11:15:55;;;;;;;0.17;0.17;;;18.20;9.60;;;;;;4831257;29;19976;-90
2023/07/19 11:18:40;;;;;;;0.20;0.13;;;18.30;11.40;;;;;;4847317;29;20148;-91
2023/07/19 11:21:06;;;;;;;0.10;0.10;;;18.60;12.50;;;;;;4831414;29;20114;-90
2023/07/19 11:23:41;;;;;;;0.73;0.20;;;18.40;20.60;;;;;;4831693;29;20546;-91
2023/07/19 11:26:09;;;;;;;0.60;0.22;;;18.40;42.10;;;;;;4846562;29;20454;-91
2023/07/19 11:28:53;;;;;;;0.10;0.10;;;18.90;1.00;;;;;;4846926;29;20052;-90
2023/07/19 11:31:28;;;;;;;0.15;0.15;;;19.10;1.00;;;;;;4859986;29;20117;-91
2023/07/19 11:34:03;;;;;;;0.20;0.20;;;19.10;1.00;;;;;;4861616;29;20491;-91
2023/07/19 11:36:31;;;;;;;0.30;0.30;;;19.10;1.00;;;;;;4831491;29;20085;-91
2023/07/19 11:38:57;;;;;;;0.20;0.20;;;19.10;1.00;;;;;;4846428;29;20071;-91
2023/07/19 11:41:23;;;;;;;0.65;0.55;;;18.90;1.00;;;;;;4831699;29;20050;-91
2023/07/19 11:43:52;;;;;;;1.30;0.20;;;18.80;1.00;;;;;;4846384;29;20153;-88
2023/07/19 11:46:21;;;;;;;0.20;0.20;;;18.80;17.70;;;;;;4846386;29;20072;-87
2023/07/19 11:48:47;;;;;;;0.52;0.30;;;18.50;52.40;;;;;;4831071;29;20541;-87
2023/07/19 11:51:14;;;;;;;0.40;0.40;;;18.30;65.90;;;;;;4815630;29;20084;-89
2023/07/19 11:53:40;;;;;;;0.20;0.20;;;18.20;84.00;;;;;;4846203;29;20132;-88
2023/07/19 11:56:06;;;;;;;0.20;0.20;;;17.90;87.00;;;;;;4845649;29;20476;-88
2023/07/19 11:58:39;;;;;;;0.40;0.40;;;17.90;92.80;;;;;;4846338;29;20128;-88
2023/07/19 12:01:05;;;;;;;0.30;0.30;;;17.80;99.20;;;;;;4839826;29;20049;-89
2023/07/19 12:03:31;;;;;;;0.35;0.35;;;17.70;99.90;;;;;;4863704;29;20132;-89
2023/07/19 12:05:56;;;;;;;0.38;0.30;;;17.70;99.90;;;;;;4848708;29;20053;-88
2023/07/19 12:08:22;;;;;;;0.28;0.28;;;17.60;99.90;;;;;;4864466;29;20052;-88
2023/07/19 12:10:50;;;;;;;0.40;0.40;;;17.50;99.90;;;;;;4864048;29;20096;-88
2023/07/19 12:13:16;;;;;;;0.47;0.47;;;17.40;99.90;;;;;;4848464;29;20480;-88
2023/07/19 12:15:42;;;;;;;0.30;0.30;;;17.30;99.90;;;;;;4863168;29;20131;-88
2023/07/19 12:18:08;;;;;;;0.30;0.30;;;17.10;99.90;;;;;;4864014;29;20056;-88
2023/07/19 12:20:43;;;;;;;0.50;0.30;;;17.10;99.90;;;;;;4849895;29;20208;-88
2023/07/19 12:23:14;;;;;;;0.30;0.30;;;17.20;99.90;;;;;;4864279;29;20056;-89
2023/07/19 12:25:45;;;;;;;0.60;0.45;;;17.30;99.90;;;;;;4864418;29;20049;-89
2023/07/19 12:28:12;;;;;;;0.30;0.30;;;17.60;99.90;;;;;;4863499;29;20049;-89
2023/07/19 12:30:43;;;;;;;0.30;0.30;;;17.70;99.90;;;;;;4847594;29;20502;-89
2023/07/19 12:33:09;;;;;;;0.45;0.45;;;17.70;99.90;;;;;;4863395;29;20482;-89
2023/07/19 12:35:36;;;;;;;0.70;0.50;;;17.90;99.90;;;;;;4878116;29;20087;-89
2023/07/19 12:38:10;;;;;;;0.25;0.20;;;18.00;99.90;;;;;;4863143;29;20056;-89
2023/07/19 12:40:35;;;;;;;0.68;0.68;;;17.50;99.90;;;;;;4863902;29;20049;-89
2023/07/19 12:43:14;;;;;;;;;;;;;;;;;;;;;
2023/07/19 12:45:41;;;;;;;0.57;0.20;;;18.10;99.90;;;;;;4863931;29;20056;-89
2023/07/19 12:48:06;;;;;;;;;;;18.00;99.90;;;;;;4848446;29;20084;-89
2023/07/19 12:50:32;;;;;;;0.47;0.40;;;18.00;99.90;;;;;;4848128;29;20388;-89
2023/07/19 12:53:01;;;;;;;0.60;0.60;;;17.90;99.90;;;;;;4847809;29;20056;-90
2023/07/19 12:55:27;;;;;;;0.45;0.45;;;17.90;99.90;;;;;;4863565;29;20143;-89